sensor_id;sensor_type;location;lat;lon;timestamp;temperature;humidity
1546;DHT22;766;51.502;9.752;2023-02-04T00:00:26;4.70;99.90
1546;DHT22;766;51.502;9.752;2023-02-04T00:02:55;4.60;99.90
1546;DHT22;766;51.502;9.752;2023-02-04T00:05:25;4.50;99.90
1546;DHT22;766;51.502;9.752;2023-02-04T00:07:53;4.50;99.90
1546;DHT22;766;51.502;9.752;2023-02-04T00:10:22;4.40;99.90
1546;DHT22;766;51.502;9.752;2023-02-04T00:12:50;4.40;99.90
1546;DHT22;766;51.502;9.752;2023-02-04T00:15:18;4.30;99.90
1546;DHT22;766;51.502;9.752;2023-02-04T00:17:47;4.30;99.90
1546;DHT22;766;51.502;9.752;2023-02-04T00:20:18;4.30;99.90
1546;DHT22;766;51.502;9.752;2023-02-04T00:22:48;4.30;99.90
1546;DHT22;766;51.502;9.752;2023-02-04T00:25:17;4.20;99.90
1546;DHT22;766;51.502;9.752;2023-02-04T00:27:45;4.10;99.90
1546;DHT22;766;51.502;9.752;2023-02-04T00:30:14;4.10;99.90
1546;DHT22;766;51.502;9.752;2023-02-04T00:32:42;4.20;99.90
1546;DHT22;766;51.502;9.752;2023-02-04T00:35:11;4.10;99.90
1546;DHT22;766;51.502;9.752;2023-02-04T00:37:40;4.00;99.90
1546;DHT22;766;51.502;9.752;2023-02-04T00:40:11;3.90;99.90
1546;DHT22;766;51.502;9.752;2023-02-04T00:42:40;4.00;99.90
1546;DHT22;766;51.502;9.752;2023-02-04T00:45:09;4.00;99.90
1546;DHT22;766;51.502;9.752;2023-02-04T00:47:37;3.90;99.90
1546;DHT22;766;51.502;9.752;2023-02-04T00:50:06;4.10;99.90
1546;DHT22;766;51.502;9.752;2023-02-04T00:52:35;4.10;99.90
1546;DHT22;766;51.502;9.752;2023-02-04T00:55:03;4.20;99.90
1546;DHT22;766;51.502;9.752;2023-02-04T00:57:35;4.20;99.90
1546;DHT22;766;51.502;9.752;2023-02-04T01:00:04;4.40;99.90
1546;DHT22;766;51.502;9.752;2023-02-04T01:02:33;4.40;99.90
1546;DHT22;766;51.502;9.752;2023-02-04T01:05:01;4.30;99.90
1546;DHT22;766;51.502;9.752;2023-02-04T01:07:29;4.30;99.90
1546;DHT22;766;51.502;9.752;2023-02-04T01:09:57;4.30;99.90
1546;DHT22;766;51.502;9.752;2023-02-04T01:12:26;4.40;99.90
1546;DHT22;766;51.502;9.752;2023-02-04T01:14:56;4.40;99.90
1546;DHT22;766;51.502;9.752;2023-02-04T01:17:24;4.40;99.90
1546;DHT22;766;51.502;9.752;2023-02-04T01:19:53;4.50;99.90
1546;DHT22;766;51.502;9.752;2023-02-04T01:22:22;4.60;99.90
1546;DHT22;766;51.502;9.752;2023-02-04T01:24:50;4.50;99.90
1546;DHT22;766;51.502;9.752;2023-02-04T01:27:19;4.50;99.90
1546;DHT22;766;51.502;9.752;2023-02-04T01:29:47;4.40;99.90
1546;DHT22;766;51.502;9.752;2023-02-04T01:32:18;4.50;99.90
1546;DHT22;766;51.502;9.752;2023-02-04T01:34:46;4.60;99.90
1546;DHT22;766;51.502;9.752;2023-02-04T01:37:14;4.50;99.90
1546;DHT22;766;51.502;9.752;2023-02-04T01:39:43;4.50;99.90
1546;DHT22;766;51.502;9.752;2023-02-04T01:42:11;4.60;99.90
1546;DHT22;766;51.502;9.752;2023-02-04T01:44:41;4.60;99.90
1546;DHT22;766;51.502;9.752;2023-02-04T01:47:09;4.50;99.90
1546;DHT22;766;51.502;9.752;2023-02-04T01:49:39;4.50;99.90
1546;DHT22;766;51.502;9.752;2023-02-04T01:52:09;4.60;99.90
1546;DHT22;766;51.502;9.752;2023-02-04T01:54:38;4.40;99.90
1546;DHT22;766;51.502;9.752;2023-02-04T01:57:08;4.40;99.90
1546;DHT22;766;51.502;9.752;2023-02-04T01:59:42;4.40;99.90
1546;DHT22;766;51.502;9.752;2023-02-04T02:02:39;4.40;99.90
1546;DHT22;766;51.502;9.752;2023-02-04T02:05:12;4.30;99.90
1546;DHT22;766;51.502;9.752;2023-02-04T02:07:42;4.30;99.90
1546;DHT22;766;51.502;9.752;2023-02-04T02:10:11;4.30;99.90
1546;DHT22;766;51.502;9.752;2023-02-04T02:12:40;4.30;99.90
1546;DHT22;766;51.502;9.752;2023-02-04T02:15:10;4.20;99.90
1546;DHT22;766;51.502;9.752;2023-02-04T02:17:39;4.10;99.90
1546;DHT22;766;51.502;9.752;2023-02-04T02:20:13;4.20;99.90
1546;DHT22;766;51.502;9.752;2023-02-04T02:22:49;4.10;99.90
1546;DHT22;766;51.502;9.752;2023-02-04T02:25:20;4.10;99.90
1546;DHT22;766;51.502;9.752;2023-02-04T02:27:49;4.20;99.90
1546;DHT22;766;51.502;9.752;2023-02-04T02:30:26;4.20;99.90
1546;DHT22;766;51.502;9.752;2023-02-04T02:32:55;4.10;99.90
1546;DHT22;766;51.502;9.752;2023-02-04T02:35:24;4.10;99.90
1546;DHT22;766;51.502;9.752;2023-02-04T02:37:52;4.10;99.90
1546;DHT22;766;51.502;9.752;2023-02-04T02:40:22;3.90;99.90
1546;DHT22;766;51.502;9.752;2023-02-04T02:42:52;3.90;99.90
1546;DHT22;766;51.502;9.752;2023-02-04T02:45:23;3.70;99.90
1546;DHT22;766;51.502;9.752;2023-02-04T02:47:52;3.70;99.90
1546;DHT22;766;51.502;9.752;2023-02-04T02:50:23;3.70;99.90
1546;DHT22;766;51.502;9.752;2023-02-04T02:52:53;3.70;99.90
1546;DHT22;766;51.502;9.752;2023-02-04T02:55:25;3.60;99.90
1546;DHT22;766;51.502;9.752;2023-02-04T02:57:55;3.70;99.90
1546;DHT22;766;51.502;9.752;2023-02-04T03:00:25;3.70;99.90
1546;DHT22;766;51.502;9.752;2023-02-04T03:02:56;3.70;99.90
1546;DHT22;766;51.502;9.752;2023-02-04T03:05:28;3.70;99.90
1546;DHT22;766;51.502;9.752;2023-02-04T03:07:57;3.80;99.90
1546;DHT22;766;51.502;9.752;2023-02-04T03:10:27;3.90;99.90
1546;DHT22;766;51.502;9.752;2023-02-04T03:12:57;3.80;99.90
1546;DHT22;766;51.502;9.752;2023-02-04T03:15:26;3.80;99.90
1546;DHT22;766;51.502;9.752;2023-02-04T03:17:55;3.80;99.90
1546;DHT22;766;51.502;9.752;2023-02-04T03:20:24;3.80;99.90
1546;DHT22;766;51.502;9.752;2023-02-04T03:22:54;3.70;99.90
1546;DHT22;766;51.502;9.752;2023-02-04T03:25:24;3.70;99.90
1546;DHT22;766;51.502;9.752;2023-02-04T03:27:58;3.70;99.90
1546;DHT22;766;51.502;9.752;2023-02-04T03:30:27;3.70;99.90
1546;DHT22;766;51.502;9.752;2023-02-04T03:32:56;3.70;99.90
1546;DHT22;766;51.502;9.752;2023-02-04T03:35:25;3.70;99.90
1546;DHT22;766;51.502;9.752;2023-02-04T03:37:53;3.70;99.90
1546;DHT22;766;51.502;9.752;2023-02-04T03:40:21;3.80;99.90
1546;DHT22;766;51.502;9.752;2023-02-04T03:42:49;3.90;99.90
1546;DHT22;766;51.502;9.752;2023-02-04T03:45:19;3.90;99.90
1546;DHT22;766;51.502;9.752;2023-02-04T03:47:47;3.80;99.90
1546;DHT22;766;51.502;9.752;2023-02-04T03:50:17;3.80;99.90
1546;DHT22;766;51.502;9.752;2023-02-04T03:52:45;3.70;99.90
1546;DHT22;766;51.502;9.752;2023-02-04T03:55:14;3.80;99.90
1546;DHT22;766;51.502;9.752;2023-02-04T03:57:43;3.80;99.90
1546;DHT22;766;51.502;9.752;2023-02-04T04:00:12;3.90;99.90
1546;DHT22;766;51.502;9.752;2023-02-04T04:02:42;3.80;99.90
1546;DHT22;766;51.502;9.752;2023-02-04T04:05:11;3.80;99.90
1546;DHT22;766;51.502;9.752;2023-02-04T04:07:39;3.90;99.90
1546;DHT22;766;51.502;9.752;2023-02-04T04:10:08;3.80;99.90
1546;DHT22;766;51.502;9.752;2023-02-04T04:12:36;3.80;99.90
1546;DHT22;766;51.502;9.752;2023-02-04T04:15:08;3.80;99.90
1546;DHT22;766;51.502;9.752;2023-02-04T04:17:36;3.80;99.90
1546;DHT22;766;51.502;9.752;2023-02-04T04:20:06;3.60;99.90
1546;DHT22;766;51.502;9.752;2023-02-04T04:22:35;3.70;99.90
1546;DHT22;766;51.502;9.752;2023-02-04T04:25:04;3.70;99.90
1546;DHT22;766;51.502;9.752;2023-02-04T04:27:32;3.60;99.90
1546;DHT22;766;51.502;9.752;2023-02-04T04:30:00;3.50;99.90
1546;DHT22;766;51.502;9.752;2023-02-04T04:32:29;3.30;99.90
1546;DHT22;766;51.502;9.752;2023-02-04T04:34:57;2.90;99.90
1546;DHT22;766;51.502;9.752;2023-02-04T04:37:26;2.70;99.90
1546;DHT22;766;51.502;9.752;2023-02-04T04:39:55;2.60;99.90
1546;DHT22;766;51.502;9.752;2023-02-04T04:42:23;2.50;99.90
1546;DHT22;766;51.502;9.752;2023-02-04T04:44:51;2.50;99.90
1546;DHT22;766;51.502;9.752;2023-02-04T04:47:19;2.50;99.90
1546;DHT22;766;51.502;9.752;2023-02-04T04:49:47;2.20;99.90
1546;DHT22;766;51.502;9.752;2023-02-04T04:52:16;2.30;99.90
1546;DHT22;766;51.502;9.752;2023-02-04T04:54:46;2.10;99.90
1546;DHT22;766;51.502;9.752;2023-02-04T04:57:14;2.00;99.90
1546;DHT22;766;51.502;9.752;2023-02-04T04:59:42;2.00;99.90
1546;DHT22;766;51.502;9.752;2023-02-04T05:02:10;1.90;99.90
1546;DHT22;766;51.502;9.752;2023-02-04T05:04:38;2.00;99.90
1546;DHT22;766;51.502;9.752;2023-02-04T05:07:09;2.00;99.90
1546;DHT22;766;51.502;9.752;2023-02-04T05:09:37;1.90;99.90
1546;DHT22;766;51.502;9.752;2023-02-04T05:12:07;1.90;99.90
1546;DHT22;766;51.502;9.752;2023-02-04T05:14:35;1.80;99.90
1546;DHT22;766;51.502;9.752;2023-02-04T05:17:04;1.90;99.90
1546;DHT22;766;51.502;9.752;2023-02-04T05:19:32;2.00;99.90
1546;DHT22;766;51.502;9.752;2023-02-04T05:22:01;2.00;99.90
1546;DHT22;766;51.502;9.752;2023-02-04T05:24:29;2.10;99.90
1546;DHT22;766;51.502;9.752;2023-02-04T05:26:57;2.10;99.90
1546;DHT22;766;51.502;9.752;2023-02-04T05:29:27;2.10;99.90
1546;DHT22;766;51.502;9.752;2023-02-04T05:31:55;2.20;99.90
1546;DHT22;766;51.502;9.752;2023-02-04T05:34:23;2.20;99.90
1546;DHT22;766;51.502;9.752;2023-02-04T05:36:52;2.20;99.90
1546;DHT22;766;51.502;9.752;2023-02-04T05:39:21;2.10;99.90
1546;DHT22;766;51.502;9.752;2023-02-04T05:41:49;2.10;99.90
1546;DHT22;766;51.502;9.752;2023-02-04T05:44:17;2.00;99.90
1546;DHT22;766;51.502;9.752;2023-02-04T05:46:47;2.10;99.90
1546;DHT22;766;51.502;9.752;2023-02-04T05:49:16;2.30;99.90
1546;DHT22;766;51.502;9.752;2023-02-04T05:51:44;2.30;99.90
1546;DHT22;766;51.502;9.752;2023-02-04T05:54:12;2.30;99.90
1546;DHT22;766;51.502;9.752;2023-02-04T05:56:45;2.30;99.90
1546;DHT22;766;51.502;9.752;2023-02-04T05:59:13;2.10;99.90
1546;DHT22;766;51.502;9.752;2023-02-04T06:01:42;2.20;99.90
1546;DHT22;766;51.502;9.752;2023-02-04T06:04:12;2.20;99.90
1546;DHT22;766;51.502;9.752;2023-02-04T06:06:41;2.30;99.90
1546;DHT22;766;51.502;9.752;2023-02-04T06:09:10;2.30;99.90
1546;DHT22;766;51.502;9.752;2023-02-04T06:11:38;2.40;99.90
1546;DHT22;766;51.502;9.752;2023-02-04T06:14:06;2.40;99.90
1546;DHT22;766;51.502;9.752;2023-02-04T06:16:36;2.30;99.90
1546;DHT22;766;51.502;9.752;2023-02-04T06:19:08;2.40;99.90
1546;DHT22;766;51.502;9.752;2023-02-04T06:21:37;2.20;99.90
1546;DHT22;766;51.502;9.752;2023-02-04T06:24:06;1.90;99.90
1546;DHT22;766;51.502;9.752;2023-02-04T06:26:37;2.10;99.90
1546;DHT22;766;51.502;9.752;2023-02-04T06:29:05;2.20;99.90
1546;DHT22;766;51.502;9.752;2023-02-04T06:31:34;2.30;99.90
1546;DHT22;766;51.502;9.752;2023-02-04T06:34:04;2.30;99.90
1546;DHT22;766;51.502;9.752;2023-02-04T06:36:32;2.20;99.90
1546;DHT22;766;51.502;9.752;2023-02-04T06:39:02;2.30;99.90
1546;DHT22;766;51.502;9.752;2023-02-04T06:41:30;2.30;99.90
1546;DHT22;766;51.502;9.752;2023-02-04T06:43:59;2.20;99.90
1546;DHT22;766;51.502;9.752;2023-02-04T06:46:30;2.10;99.90
1546;DHT22;766;51.502;9.752;2023-02-04T06:48:58;2.00;99.90
1546;DHT22;766;51.502;9.752;2023-02-04T06:51:30;1.90;99.90
1546;DHT22;766;51.502;9.752;2023-02-04T06:53:58;1.70;99.90
1546;DHT22;766;51.502;9.752;2023-02-04T06:56:27;1.60;99.90
1546;DHT22;766;51.502;9.752;2023-02-04T06:58:58;1.60;99.90
1546;DHT22;766;51.502;9.752;2023-02-04T07:01:29;1.60;99.90
1546;DHT22;766;51.502;9.752;2023-02-04T07:03:57;1.50;99.90
1546;DHT22;766;51.502;9.752;2023-02-04T07:06:25;1.50;99.90
1546;DHT22;766;51.502;9.752;2023-02-04T07:08:55;1.40;99.90
1546;DHT22;766;51.502;9.752;2023-02-04T07:11:24;1.50;99.90
1546;DHT22;766;51.502;9.752;2023-02-04T07:13:54;1.50;99.90
1546;DHT22;766;51.502;9.752;2023-02-04T07:16:22;1.50;99.90
1546;DHT22;766;51.502;9.752;2023-02-04T07:18:53;1.70;99.90
1546;DHT22;766;51.502;9.752;2023-02-04T07:21:21;1.80;99.90
1546;DHT22;766;51.502;9.752;2023-02-04T07:23:50;1.50;99.90
1546;DHT22;766;51.502;9.752;2023-02-04T07:26:18;1.70;99.90
1546;DHT22;766;51.502;9.752;2023-02-04T07:28:46;1.70;99.90
1546;DHT22;766;51.502;9.752;2023-02-04T07:31:16;1.90;99.90
1546;DHT22;766;51.502;9.752;2023-02-04T07:33:45;1.70;99.90
1546;DHT22;766;51.502;9.752;2023-02-04T07:36:13;1.60;99.90
1546;DHT22;766;51.502;9.752;2023-02-04T07:38:41;1.80;99.90
1546;DHT22;766;51.502;9.752;2023-02-04T07:41:09;1.90;99.90
1546;DHT22;766;51.502;9.752;2023-02-04T07:43:37;1.90;99.90
1546;DHT22;766;51.502;9.752;2023-02-04T07:46:06;1.80;99.90
1546;DHT22;766;51.502;9.752;2023-02-04T07:48:35;1.80;99.90
1546;DHT22;766;51.502;9.752;2023-02-04T07:51:04;1.90;99.90
1546;DHT22;766;51.502;9.752;2023-02-04T07:53:32;2.00;99.90
1546;DHT22;766;51.502;9.752;2023-02-04T07:56:00;2.20;99.90
1546;DHT22;766;51.502;9.752;2023-02-04T07:58:28;2.20;99.90
1546;DHT22;766;51.502;9.752;2023-02-04T08:00:57;2.40;99.90
1546;DHT22;766;51.502;9.752;2023-02-04T08:03:25;2.10;99.90
1546;DHT22;766;51.502;9.752;2023-02-04T08:05:55;1.90;99.90
1546;DHT22;766;51.502;9.752;2023-02-04T08:08:25;1.90;99.90
1546;DHT22;766;51.502;9.752;2023-02-04T08:10:56;1.90;99.90
1546;DHT22;766;51.502;9.752;2023-02-04T08:13:24;2.20;99.90
1546;DHT22;766;51.502;9.752;2023-02-04T08:15:52;2.30;99.90
1546;DHT22;766;51.502;9.752;2023-02-04T08:18:21;2.60;99.90
1546;DHT22;766;51.502;9.752;2023-02-04T08:20:51;2.70;99.90
1546;DHT22;766;51.502;9.752;2023-02-04T08:23:21;2.70;99.90
1546;DHT22;766;51.502;9.752;2023-02-04T08:25:49;2.80;99.90
1546;DHT22;766;51.502;9.752;2023-02-04T08:28:17;2.80;99.90
1546;DHT22;766;51.502;9.752;2023-02-04T08:30:46;2.50;99.90
1546;DHT22;766;51.502;9.752;2023-02-04T08:33:14;2.60;99.90
1546;DHT22;766;51.502;9.752;2023-02-04T08:35:43;2.70;99.90
1546;DHT22;766;51.502;9.752;2023-02-04T08:38:11;2.70;99.90
1546;DHT22;766;51.502;9.752;2023-02-04T08:40:41;2.70;99.90
1546;DHT22;766;51.502;9.752;2023-02-04T08:43:09;2.70;99.90
1546;DHT22;766;51.502;9.752;2023-02-04T08:45:38;2.70;99.90
1546;DHT22;766;51.502;9.752;2023-02-04T08:48:07;2.60;99.90
1546;DHT22;766;51.502;9.752;2023-02-04T08:50:35;2.70;99.90
1546;DHT22;766;51.502;9.752;2023-02-04T08:53:05;2.90;99.90
1546;DHT22;766;51.502;9.752;2023-02-04T08:55:35;2.90;99.90
1546;DHT22;766;51.502;9.752;2023-02-04T08:58:05;3.10;99.90
1546;DHT22;766;51.502;9.752;2023-02-04T09:00:33;3.20;99.90
1546;DHT22;766;51.502;9.752;2023-02-04T09:03:02;3.20;99.90
1546;DHT22;766;51.502;9.752;2023-02-04T09:05:30;3.30;99.90
1546;DHT22;766;51.502;9.752;2023-02-04T09:07:58;3.50;99.90
1546;DHT22;766;51.502;9.752;2023-02-04T09:10:26;3.60;99.90
1546;DHT22;766;51.502;9.752;2023-02-04T09:12:54;3.70;99.90
1546;DHT22;766;51.502;9.752;2023-02-04T09:15:25;3.40;99.90
1546;DHT22;766;51.502;9.752;2023-02-04T09:17:56;3.60;99.90
1546;DHT22;766;51.502;9.752;2023-02-04T09:20:30;3.80;99.90
1546;DHT22;766;51.502;9.752;2023-02-04T09:23:01;3.90;99.90
1546;DHT22;766;51.502;9.752;2023-02-04T09:25:30;3.90;99.90
1546;DHT22;766;51.502;9.752;2023-02-04T09:27:58;4.00;99.90
1546;DHT22;766;51.502;9.752;2023-02-04T09:30:27;4.00;99.90
1546;DHT22;766;51.502;9.752;2023-02-04T09:32:56;3.90;99.90
1546;DHT22;766;51.502;9.752;2023-02-04T09:35:27;4.10;99.90
1546;DHT22;766;51.502;9.752;2023-02-04T09:37:55;4.10;99.90
1546;DHT22;766;51.502;9.752;2023-02-04T09:40:26;4.00;99.90
1546;DHT22;766;51.502;9.752;2023-02-04T09:42:56;3.90;99.90
1546;DHT22;766;51.502;9.752;2023-02-04T09:45:31;4.00;99.90
1546;DHT22;766;51.502;9.752;2023-02-04T09:48:02;4.00;99.90
1546;DHT22;766;51.502;9.752;2023-02-04T09:50:36;4.00;99.90
1546;DHT22;766;51.502;9.752;2023-02-04T09:53:05;3.60;99.90
1546;DHT22;766;51.502;9.752;2023-02-04T09:55:37;3.60;99.90
1546;DHT22;766;51.502;9.752;2023-02-04T09:58:11;3.50;99.90
1546;DHT22;766;51.502;9.752;2023-02-04T10:00:44;3.50;99.90
1546;DHT22;766;51.502;9.752;2023-02-04T10:03:14;3.40;99.90
1546;DHT22;766;51.502;9.752;2023-02-04T10:05:44;3.30;99.90
1546;DHT22;766;51.502;9.752;2023-02-04T10:08:14;3.10;99.90
1546;DHT22;766;51.502;9.752;2023-02-04T10:10:44;3.50;99.90
1546;DHT22;766;51.502;9.752;2023-02-04T10:13:15;3.50;99.90
1546;DHT22;766;51.502;9.752;2023-02-04T10:15:46;3.80;99.90
1546;DHT22;766;51.502;9.752;2023-02-04T10:18:18;3.70;99.90
1546;DHT22;766;51.502;9.752;2023-02-04T10:20:48;3.40;99.90
1546;DHT22;766;51.502;9.752;2023-02-04T10:23:17;3.60;99.90
1546;DHT22;766;51.502;9.752;2023-02-04T10:25:47;3.90;99.90
1546;DHT22;766;51.502;9.752;2023-02-04T10:28:15;4.00;99.90
1546;DHT22;766;51.502;9.752;2023-02-04T10:30:46;3.50;99.90
1546;DHT22;766;51.502;9.752;2023-02-04T10:33:20;3.50;99.90
1546;DHT22;766;51.502;9.752;2023-02-04T10:35:52;3.50;99.90
1546;DHT22;766;51.502;9.752;2023-02-04T10:38:20;3.40;99.90
1546;DHT22;766;51.502;9.752;2023-02-04T10:40:59;3.20;99.90
1546;DHT22;766;51.502;9.752;2023-02-04T10:43:28;3.10;99.90
1546;DHT22;766;51.502;9.752;2023-02-04T10:46:01;3.20;99.90
1546;DHT22;766;51.502;9.752;2023-02-04T10:48:37;3.40;99.90
1546;DHT22;766;51.502;9.752;2023-02-04T10:51:09;3.50;99.90
1546;DHT22;766;51.502;9.752;2023-02-04T10:53:39;3.90;99.90
1546;DHT22;766;51.502;9.752;2023-02-04T10:56:25;4.00;99.90
1546;DHT22;766;51.502;9.752;2023-02-04T10:58:53;3.90;99.90
1546;DHT22;766;51.502;9.752;2023-02-04T11:01:25;3.70;99.90
1546;DHT22;766;51.502;9.752;2023-02-04T11:03:58;3.40;99.90
1546;DHT22;766;51.502;9.752;2023-02-04T11:06:27;3.70;99.90
1546;DHT22;766;51.502;9.752;2023-02-04T11:08:58;3.70;99.90
1546;DHT22;766;51.502;9.752;2023-02-04T11:11:26;3.70;99.90
1546;DHT22;766;51.502;9.752;2023-02-04T11:13:59;3.80;99.90
1546;DHT22;766;51.502;9.752;2023-02-04T11:16:30;3.80;99.90
1546;DHT22;766;51.502;9.752;2023-02-04T11:19:03;4.00;99.90
1546;DHT22;766;51.502;9.752;2023-02-04T11:21:42;3.80;99.90
1546;DHT22;766;51.502;9.752;2023-02-04T11:24:23;3.60;99.90
1546;DHT22;766;51.502;9.752;2023-02-04T11:27:03;3.50;99.90
1546;DHT22;766;51.502;9.752;2023-02-04T11:29:34;3.60;99.90
1546;DHT22;766;51.502;9.752;2023-02-04T11:32:27;3.60;99.90
1546;DHT22;766;51.502;9.752;2023-02-04T11:35:23;3.70;99.90
1546;DHT22;766;51.502;9.752;2023-02-04T11:37:51;3.60;99.90
1546;DHT22;766;51.502;9.752;2023-02-04T11:40:27;3.60;99.90
1546;DHT22;766;51.502;9.752;2023-02-04T11:43:02;4.10;99.90
1546;DHT22;766;51.502;9.752;2023-02-04T11:45:32;4.30;99.90
1546;DHT22;766;51.502;9.752;2023-02-04T11:48:09;4.20;99.90
1546;DHT22;766;51.502;9.752;2023-02-04T11:50:38;3.90;99.90
1546;DHT22;766;51.502;9.752;2023-02-04T11:53:09;4.00;99.90
1546;DHT22;766;51.502;9.752;2023-02-04T11:55:43;4.30;99.90
1546;DHT22;766;51.502;9.752;2023-02-04T11:58:15;4.50;99.90
1546;DHT22;766;51.502;9.752;2023-02-04T12:00:44;4.10;99.90
1546;DHT22;766;51.502;9.752;2023-02-04T12:03:25;4.00;99.90
1546;DHT22;766;51.502;9.752;2023-02-04T12:05:57;4.10;99.90
1546;DHT22;766;51.502;9.752;2023-02-04T12:08:30;4.10;99.90
1546;DHT22;766;51.502;9.752;2023-02-04T12:11:02;4.60;99.90
1546;DHT22;766;51.502;9.752;2023-02-04T12:13:31;4.50;99.90
1546;DHT22;766;51.502;9.752;2023-02-04T12:16:01;4.40;99.90
1546;DHT22;766;51.502;9.752;2023-02-04T12:18:33;4.20;99.90
1546;DHT22;766;51.502;9.752;2023-02-04T12:21:04;4.30;99.90
1546;DHT22;766;51.502;9.752;2023-02-04T12:23:32;4.20;99.90
1546;DHT22;766;51.502;9.752;2023-02-04T12:26:00;4.40;99.90
1546;DHT22;766;51.502;9.752;2023-02-04T12:28:29;4.30;99.90
1546;DHT22;766;51.502;9.752;2023-02-04T12:30:57;4.00;99.90
1546;DHT22;766;51.502;9.752;2023-02-04T12:33:27;3.70;99.90
1546;DHT22;766;51.502;9.752;2023-02-04T12:35:57;3.90;99.90
1546;DHT22;766;51.502;9.752;2023-02-04T12:38:25;3.90;99.90
1546;DHT22;766;51.502;9.752;2023-02-04T12:40:54;4.00;99.90
1546;DHT22;766;51.502;9.752;2023-02-04T12:43:26;4.00;99.90
1546;DHT22;766;51.502;9.752;2023-02-04T12:45:56;4.00;99.90
1546;DHT22;766;51.502;9.752;2023-02-04T12:48:24;3.90;99.90
1546;DHT22;766;51.502;9.752;2023-02-04T12:50:53;4.10;99.90
1546;DHT22;766;51.502;9.752;2023-02-04T12:53:22;4.10;99.90
1546;DHT22;766;51.502;9.752;2023-02-04T12:55:50;4.10;99.90
1546;DHT22;766;51.502;9.752;2023-02-04T12:58:19;4.30;99.90
1546;DHT22;766;51.502;9.752;2023-02-04T13:00:48;4.60;99.90
1546;DHT22;766;51.502;9.752;2023-02-04T13:03:16;4.60;99.90
1546;DHT22;766;51.502;9.752;2023-02-04T13:05:45;4.60;99.90
1546;DHT22;766;51.502;9.752;2023-02-04T13:08:14;4.50;99.90
1546;DHT22;766;51.502;9.752;2023-02-04T13:10:44;4.20;99.90
1546;DHT22;766;51.502;9.752;2023-02-04T13:13:18;4.40;99.90
1546;DHT22;766;51.502;9.752;2023-02-04T13:15:46;4.40;99.90
1546;DHT22;766;51.502;9.752;2023-02-04T13:18:15;4.10;99.90
1546;DHT22;766;51.502;9.752;2023-02-04T13:20:44;4.30;99.90
1546;DHT22;766;51.502;9.752;2023-02-04T13:23:13;4.20;99.90
1546;DHT22;766;51.502;9.752;2023-02-04T13:25:44;4.50;99.90
1546;DHT22;766;51.502;9.752;2023-02-04T13:28:16;4.60;99.90
1546;DHT22;766;51.502;9.752;2023-02-04T13:30:47;4.60;99.90
1546;DHT22;766;51.502;9.752;2023-02-04T13:33:16;4.50;99.90
1546;DHT22;766;51.502;9.752;2023-02-04T13:35:44;4.40;99.90
1546;DHT22;766;51.502;9.752;2023-02-04T13:38:13;4.80;99.90
1546;DHT22;766;51.502;9.752;2023-02-04T13:40:41;4.90;99.90
1546;DHT22;766;51.502;9.752;2023-02-04T13:43:13;5.20;99.90
1546;DHT22;766;51.502;9.752;2023-02-04T13:45:41;5.00;99.90
1546;DHT22;766;51.502;9.752;2023-02-04T13:48:14;4.90;99.90
1546;DHT22;766;51.502;9.752;2023-02-04T13:50:42;4.40;99.90
1546;DHT22;766;51.502;9.752;2023-02-04T13:53:10;4.40;99.90
1546;DHT22;766;51.502;9.752;2023-02-04T13:55:39;4.50;99.90
1546;DHT22;766;51.502;9.752;2023-02-04T13:58:08;4.60;99.90
1546;DHT22;766;51.502;9.752;2023-02-04T14:00:37;4.70;99.90
1546;DHT22;766;51.502;9.752;2023-02-04T14:03:06;4.50;99.90
1546;DHT22;766;51.502;9.752;2023-02-04T14:05:35;4.60;99.90
1546;DHT22;766;51.502;9.752;2023-02-04T14:08:03;4.50;99.90
1546;DHT22;766;51.502;9.752;2023-02-04T14:10:31;4.30;99.90
1546;DHT22;766;51.502;9.752;2023-02-04T14:13:00;4.30;99.90
1546;DHT22;766;51.502;9.752;2023-02-04T14:15:28;4.10;99.90
1546;DHT22;766;51.502;9.752;2023-02-04T14:18:02;3.70;99.90
1546;DHT22;766;51.502;9.752;2023-02-04T14:20:30;3.60;99.90
1546;DHT22;766;51.502;9.752;2023-02-04T14:22:59;3.60;99.90
1546;DHT22;766;51.502;9.752;2023-02-04T14:25:27;3.60;99.90
1546;DHT22;766;51.502;9.752;2023-02-04T14:27:56;3.50;99.90
1546;DHT22;766;51.502;9.752;2023-02-04T14:30:27;3.50;99.90
1546;DHT22;766;51.502;9.752;2023-02-04T14:32:56;3.40;99.90
1546;DHT22;766;51.502;9.752;2023-02-04T14:35:27;3.30;99.90
1546;DHT22;766;51.502;9.752;2023-02-04T14:37:55;3.10;99.90
1546;DHT22;766;51.502;9.752;2023-02-04T14:40:24;3.20;99.90
1546;DHT22;766;51.502;9.752;2023-02-04T14:42:53;3.20;99.90
1546;DHT22;766;51.502;9.752;2023-02-04T14:45:21;3.30;99.90
1546;DHT22;766;51.502;9.752;2023-02-04T14:47:49;3.40;99.90
1546;DHT22;766;51.502;9.752;2023-02-04T14:50:18;3.40;99.90
1546;DHT22;766;51.502;9.752;2023-02-04T14:52:55;3.30;99.90
1546;DHT22;766;51.502;9.752;2023-02-04T14:55:24;3.20;99.90
1546;DHT22;766;51.502;9.752;2023-02-04T14:57:53;3.20;99.90
1546;DHT22;766;51.502;9.752;2023-02-04T15:00:21;3.20;99.90
1546;DHT22;766;51.502;9.752;2023-02-04T15:02:50;3.20;99.90
1546;DHT22;766;51.502;9.752;2023-02-04T15:05:19;3.10;99.90
1546;DHT22;766;51.502;9.752;2023-02-04T15:07:47;3.20;99.90
1546;DHT22;766;51.502;9.752;2023-02-04T15:10:17;3.40;99.90
1546;DHT22;766;51.502;9.752;2023-02-04T15:12:46;3.40;99.90
1546;DHT22;766;51.502;9.752;2023-02-04T15:15:16;3.40;99.90
1546;DHT22;766;51.502;9.752;2023-02-04T15:17:45;3.30;99.90
1546;DHT22;766;51.502;9.752;2023-02-04T15:20:13;3.30;99.90
1546;DHT22;766;51.502;9.752;2023-02-04T15:22:42;3.20;99.90
1546;DHT22;766;51.502;9.752;2023-02-04T15:25:12;3.30;99.90
1546;DHT22;766;51.502;9.752;2023-02-04T15:27:42;3.20;99.90
1546;DHT22;766;51.502;9.752;2023-02-04T15:30:10;3.10;99.90
1546;DHT22;766;51.502;9.752;2023-02-04T15:32:38;3.00;99.90
1546;DHT22;766;51.502;9.752;2023-02-04T15:35:08;3.00;99.90
1546;DHT22;766;51.502;9.752;2023-02-04T15:37:37;3.00;99.90
1546;DHT22;766;51.502;9.752;2023-02-04T15:40:06;3.00;99.90
1546;DHT22;766;51.502;9.752;2023-02-04T15:42:38;3.00;99.90
1546;DHT22;766;51.502;9.752;2023-02-04T15:45:09;3.00;99.90
1546;DHT22;766;51.502;9.752;2023-02-04T15:47:38;2.90;99.90
1546;DHT22;766;51.502;9.752;2023-02-04T15:50:07;3.00;99.90
1546;DHT22;766;51.502;9.752;2023-02-04T15:52:37;2.90;99.90
1546;DHT22;766;51.502;9.752;2023-02-04T15:55:09;2.90;99.90
1546;DHT22;766;51.502;9.752;2023-02-04T15:57:38;3.10;99.90
1546;DHT22;766;51.502;9.752;2023-02-04T16:00:10;3.10;99.90
1546;DHT22;766;51.502;9.752;2023-02-04T16:02:38;3.00;99.90
1546;DHT22;766;51.502;9.752;2023-02-04T16:05:07;3.00;99.90
1546;DHT22;766;51.502;9.752;2023-02-04T16:07:35;3.00;99.90
1546;DHT22;766;51.502;9.752;2023-02-04T16:10:04;3.00;99.90
1546;DHT22;766;51.502;9.752;2023-02-04T16:12:33;2.80;99.90
1546;DHT22;766;51.502;9.752;2023-02-04T16:15:01;2.60;99.90
1546;DHT22;766;51.502;9.752;2023-02-04T16:17:31;2.50;99.90
1546;DHT22;766;51.502;9.752;2023-02-04T16:20:00;2.30;99.90
1546;DHT22;766;51.502;9.752;2023-02-04T16:22:32;2.20;99.90
1546;DHT22;766;51.502;9.752;2023-02-04T16:25:00;2.10;99.90
1546;DHT22;766;51.502;9.752;2023-02-04T16:27:33;2.00;99.90
1546;DHT22;766;51.502;9.752;2023-02-04T16:30:05;1.90;99.90
1546;DHT22;766;51.502;9.752;2023-02-04T16:32:35;1.90;99.90
1546;DHT22;766;51.502;9.752;2023-02-04T16:35:04;1.80;99.90
1546;DHT22;766;51.502;9.752;2023-02-04T16:37:33;2.00;99.90
1546;DHT22;766;51.502;9.752;2023-02-04T16:40:02;1.90;99.90
1546;DHT22;766;51.502;9.752;2023-02-04T16:42:33;2.00;99.90
1546;DHT22;766;51.502;9.752;2023-02-04T16:45:01;2.00;99.90
1546;DHT22;766;51.502;9.752;2023-02-04T16:47:29;2.00;99.90
1546;DHT22;766;51.502;9.752;2023-02-04T16:49:59;2.20;99.90